Terminal Aerodrome Forecast
Issued by NWS North Platte, NE

Home | Current Version | Previous Version | Graphics & Text | Print | Product List | Glossary On
Versions: 1 2 3 4 5 6 7 8 9 10 11 12 13 14
000
FTUS43 KLBF 220500
TAFVTN
TAF
KVTN 220525Z 2206/2306 14007KT P6SM FEW120 SCT250
     FM221500 17018G25KT P6SM SCT250
     FM221800 17022G30KT P6SM SCT250
     FM230200 15019G25KT P6SM SCT120 BKN200=

USA.gov is the U.S. government's official web portal to all federal, state and local government web resources and services.